Krabi, Thailand

5:35 AM ICT on January 17, 2017 (GMT +0700)
Ao Nang Weather Station | | Change Station

Elev 177 ft 8.05 °N, 98.84 °E | Updated 1 minute ago

Mostly Cloudy
Mostly Cloudy
73.9 °F
Feels Like 70 °F
N
0.0
Wind Variable Wind from South
Gusts 0.0 mph

Today
High -- | Low -- °F
--% Chance of Precip.
Yesterday
High -- | Low -- °F
Precip. -- in
Pressure 29.80 in
Visibility 3.1 miles
Clouds Few 2000 ft
Heat Index 70 °F
Dew Point 73 °F
Humidity 98%
Rainfall 0.00 in
Snow Depth Not available.
6:43 AM 6:25 PM
Waning Gibbous, 78% visible
METAR VTSG 162100Z 00000KT 5000 BR FEW020 23/22 Q1009
Pressure 29.80 in
Visibility 3.1 miles
Clouds Few 2000 ft
Heat Index 70 °F
Dew Point 73 °F
Humidity 98%
Rainfall 0.00 in
Snow Depth Not available.
6:43 AM 6:25 PM
Waning Gibbous, 78% visible
METAR VTSG 162100Z 00000KT 5000 BR FEW020 23/22 Q1009

Get Your Daily Forecast Email!

Thanks for signing up!

Be on the lookout for a verification email in your inbox.

You'll start receiving the daily forecast at 8 AM.

×

10-Day Weather Forecast

No radar image for this location.
×

Almanac

Astronomy

Jan. 17, 2017 Rise Set
Actual Time
Civil Twilight
Nautical Twilight
Astronomical Twilight
Moon
Length of Visible Light
Length of Day
Tomorrow will be .
, % of the Moon is Illuminated

Today's Extremes

Country Highs Country Lows

Community

WunderPhotos

Upload Photos

1,962,540 photos uploaded!

WunderBlog® & News

Nearby

Air Quality

  Air Quality AQ Index Pollutant
Not available.

Snow Depth

Station Depth Elevation

Earthquake Activity

City Distance Mag. Time & Date
Minimum magnitude displayed is 2.5.

Coastal Water Temperatures

Place Temperature

Stations

Nearby Weather Stations

Station Location Temp. Windchill Dew Point Humidity Wind Precip. Elev Updated Type